sensor_id;sensor_type;location;lat;lon;timestamp;P1;durP1;ratioP1;P2;durP2;ratioP2
60060;SDS011;45933;51.336;12.612;2023-05-10T00:00:08;5.37;;;3.87;;
60060;SDS011;45933;51.336;12.612;2023-05-10T00:02:34;6.37;;;3.67;;
60060;SDS011;45933;51.336;12.612;2023-05-10T00:04:59;5.70;;;3.80;;
60060;SDS011;45933;51.336;12.612;2023-05-10T00:07:24;3.80;;;3.40;;
60060;SDS011;45933;51.336;12.612;2023-05-10T00:09:50;6.43;;;3.30;;
60060;SDS011;45933;51.336;12.612;2023-05-10T00:12:15;8.20;;;3.70;;
60060;SDS011;45933;51.336;12.612;2023-05-10T00:14:41;4.70;;;3.60;;
60060;SDS011;45933;51.336;12.612;2023-05-10T00:17:06;5.47;;;3.33;;
60060;SDS011;45933;51.336;12.612;2023-05-10T00:19:31;4.97;;;3.43;;
60060;SDS011;45933;51.336;12.612;2023-05-10T00:21:57;4.07;;;3.67;;
60060;SDS011;45933;51.336;12.612;2023-05-10T00:24:22;6.27;;;3.60;;
60060;SDS011;45933;51.336;12.612;2023-05-10T00:26:47;4.17;;;3.43;;
60060;SDS011;45933;51.336;12.612;2023-05-10T00:29:12;6.67;;;3.70;;
60060;SDS011;45933;51.336;12.612;2023-05-10T00:31:38;4.57;;;3.33;;
60060;SDS011;45933;51.336;12.612;2023-05-10T00:34:03;4.23;;;3.43;;
60060;SDS011;45933;51.336;12.612;2023-05-10T00:36:28;5.73;;;3.70;;
60060;SDS011;45933;51.336;12.612;2023-05-10T00:38:53;5.80;;;4.03;;
60060;SDS011;45933;51.336;12.612;2023-05-10T00:41:19;5.33;;;4.00;;
60060;SDS011;45933;51.336;12.612;2023-05-10T00:43:45;5.53;;;3.90;;
60060;SDS011;45933;51.336;12.612;2023-05-10T00:46:11;3.93;;;3.13;;
60060;SDS011;45933;51.336;12.612;2023-05-10T00:48:37;4.57;;;3.90;;
60060;SDS011;45933;51.336;12.612;2023-05-10T00:51:02;4.57;;;3.40;;
60060;SDS011;45933;51.336;12.612;2023-05-10T00:53:28;6.50;;;4.00;;
60060;SDS011;45933;51.336;12.612;2023-05-10T00:55:55;4.47;;;3.70;;
60060;SDS011;45933;51.336;12.612;2023-05-10T00:58:21;4.10;;;3.53;;
60060;SDS011;45933;51.336;12.612;2023-05-10T01:00:48;5.13;;;3.90;;
60060;SDS011;45933;51.336;12.612;2023-05-10T01:03:14;3.87;;;3.47;;
60060;SDS011;45933;51.336;12.612;2023-05-10T01:05:39;6.30;;;3.60;;
60060;SDS011;45933;51.336;12.612;2023-05-10T01:08:04;6.17;;;3.80;;
60060;SDS011;45933;51.336;12.612;2023-05-10T01:10:30;5.00;;;3.57;;
60060;SDS011;45933;51.336;12.612;2023-05-10T01:12:56;4.07;;;3.60;;
60060;SDS011;45933;51.336;12.612;2023-05-10T01:15:23;5.33;;;3.70;;
60060;SDS011;45933;51.336;12.612;2023-05-10T01:17:48;4.17;;;3.60;;
60060;SDS011;45933;51.336;12.612;2023-05-10T01:20:14;4.63;;;3.73;;
60060;SDS011;45933;51.336;12.612;2023-05-10T01:31:31;4.13;;;3.60;;
60060;SDS011;45933;51.336;12.612;2023-05-10T01:34:21;5.50;;;4.10;;
60060;SDS011;45933;51.336;12.612;2023-05-10T01:37:05;3.97;;;3.10;;
60060;SDS011;45933;51.336;12.612;2023-05-10T01:42:14;5.37;;;3.53;;
60060;SDS011;45933;51.336;12.612;2023-05-10T01:44:49;5.80;;;3.43;;
60060;SDS011;45933;51.336;12.612;2023-05-10T01:47:25;5.40;;;3.80;;
60060;SDS011;45933;51.336;12.612;2023-05-10T01:50:01;4.73;;;3.33;;
60060;SDS011;45933;51.336;12.612;2023-05-10T01:52:41;8.07;;;3.60;;
60060;SDS011;45933;51.336;12.612;2023-05-10T01:55:09;4.47;;;3.40;;
60060;SDS011;45933;51.336;12.612;2023-05-10T01:57:39;4.50;;;3.20;;
60060;SDS011;45933;51.336;12.612;2023-05-10T02:00:06;4.77;;;3.70;;
60060;SDS011;45933;51.336;12.612;2023-05-10T02:02:33;4.80;;;3.50;;
60060;SDS011;45933;51.336;12.612;2023-05-10T02:05:02;4.00;;;3.60;;
60060;SDS011;45933;51.336;12.612;2023-05-10T02:07:30;6.10;;;3.80;;
60060;SDS011;45933;51.336;12.612;2023-05-10T02:09:58;11.67;;;3.87;;
60060;SDS011;45933;51.336;12.612;2023-05-10T02:12:24;4.47;;;3.50;;
60060;SDS011;45933;51.336;12.612;2023-05-10T02:14:50;5.43;;;3.70;;
60060;SDS011;45933;51.336;12.612;2023-05-10T02:17:18;3.90;;;3.40;;
60060;SDS011;45933;51.336;12.612;2023-05-10T02:19:45;4.73;;;4.23;;
60060;SDS011;45933;51.336;12.612;2023-05-10T02:22:12;3.90;;;3.40;;
60060;SDS011;45933;51.336;12.612;2023-05-10T02:24:38;5.60;;;3.97;;
60060;SDS011;45933;51.336;12.612;2023-05-10T02:27:05;4.80;;;3.70;;
60060;SDS011;45933;51.336;12.612;2023-05-10T02:29:31;4.20;;;3.70;;
60060;SDS011;45933;51.336;12.612;2023-05-10T02:31:58;4.00;;;3.60;;
60060;SDS011;45933;51.336;12.612;2023-05-10T02:34:27;7.03;;;3.70;;
60060;SDS011;45933;51.336;12.612;2023-05-10T02:36:53;7.83;;;3.90;;
60060;SDS011;45933;51.336;12.612;2023-05-10T02:39:21;5.80;;;4.00;;
60060;SDS011;45933;51.336;12.612;2023-05-10T02:41:47;3.70;;;3.33;;
60060;SDS011;45933;51.336;12.612;2023-05-10T02:44:19;5.57;;;3.80;;
60060;SDS011;45933;51.336;12.612;2023-05-10T02:46:47;5.73;;;3.57;;
60060;SDS011;45933;51.336;12.612;2023-05-10T02:49:13;4.57;;;3.63;;
60060;SDS011;45933;51.336;12.612;2023-05-10T02:51:40;6.13;;;3.80;;
60060;SDS011;45933;51.336;12.612;2023-05-10T02:54:12;7.40;;;4.03;;
60060;SDS011;45933;51.336;12.612;2023-05-10T02:56:47;5.13;;;4.10;;
60060;SDS011;45933;51.336;12.612;2023-05-10T02:59:15;4.90;;;3.70;;
60060;SDS011;45933;51.336;12.612;2023-05-10T03:01:41;4.83;;;3.93;;
60060;SDS011;45933;51.336;12.612;2023-05-10T03:04:06;7.47;;;3.93;;
60060;SDS011;45933;51.336;12.612;2023-05-10T03:06:32;6.00;;;3.50;;
60060;SDS011;45933;51.336;12.612;2023-05-10T03:08:57;4.87;;;3.30;;
60060;SDS011;45933;51.336;12.612;2023-05-10T03:17:11;5.33;;;3.57;;
60060;SDS011;45933;51.336;12.612;2023-05-10T03:19:54;4.77;;;3.53;;
60060;SDS011;45933;51.336;12.612;2023-05-10T03:22:23;4.70;;;3.50;;
60060;SDS011;45933;51.336;12.612;2023-05-10T03:24:55;8.70;;;3.90;;
60060;SDS011;45933;51.336;12.612;2023-05-10T03:27:23;5.37;;;3.97;;
60060;SDS011;45933;51.336;12.612;2023-05-10T03:29:50;4.83;;;3.97;;
60060;SDS011;45933;51.336;12.612;2023-05-10T03:32:16;7.00;;;4.17;;
60060;SDS011;45933;51.336;12.612;2023-05-10T03:34:42;5.83;;;3.80;;
60060;SDS011;45933;51.336;12.612;2023-05-10T03:37:08;5.13;;;3.70;;
60060;SDS011;45933;51.336;12.612;2023-05-10T03:39:33;6.73;;;4.20;;
60060;SDS011;45933;51.336;12.612;2023-05-10T03:42:01;5.43;;;4.07;;
60060;SDS011;45933;51.336;12.612;2023-05-10T03:44:27;8.50;;;4.53;;
60060;SDS011;45933;51.336;12.612;2023-05-10T03:46:52;6.47;;;4.90;;
60060;SDS011;45933;51.336;12.612;2023-05-10T03:49:17;8.87;;;4.20;;
60060;SDS011;45933;51.336;12.612;2023-05-10T03:51:43;6.47;;;4.27;;
60060;SDS011;45933;51.336;12.612;2023-05-10T03:54:08;6.23;;;4.37;;
60060;SDS011;45933;51.336;12.612;2023-05-10T03:56:33;7.30;;;4.50;;
60060;SDS011;45933;51.336;12.612;2023-05-10T03:58:58;6.80;;;4.47;;
60060;SDS011;45933;51.336;12.612;2023-05-10T04:01:24;7.80;;;3.90;;
60060;SDS011;45933;51.336;12.612;2023-05-10T04:03:49;8.63;;;5.53;;
60060;SDS011;45933;51.336;12.612;2023-05-10T04:06:14;6.93;;;4.70;;
60060;SDS011;45933;51.336;12.612;2023-05-10T04:08:39;6.93;;;4.70;;
60060;SDS011;45933;51.336;12.612;2023-05-10T04:11:08;9.93;;;4.50;;
60060;SDS011;45933;51.336;12.612;2023-05-10T04:13:35;10.83;;;5.33;;
60060;SDS011;45933;51.336;12.612;2023-05-10T04:16:01;8.27;;;4.20;;
60060;SDS011;45933;51.336;12.612;2023-05-10T04:18:26;6.33;;;4.00;;
60060;SDS011;45933;51.336;12.612;2023-05-10T04:20:52;7.90;;;4.40;;
60060;SDS011;45933;51.336;12.612;2023-05-10T04:23:17;5.80;;;4.47;;
60060;SDS011;45933;51.336;12.612;2023-05-10T04:25:42;6.87;;;4.47;;
60060;SDS011;45933;51.336;12.612;2023-05-10T04:28:08;7.40;;;4.03;;
60060;SDS011;45933;51.336;12.612;2023-05-10T04:30:33;6.83;;;4.20;;
60060;SDS011;45933;51.336;12.612;2023-05-10T04:32:59;6.43;;;4.17;;
60060;SDS011;45933;51.336;12.612;2023-05-10T04:35:26;7.07;;;4.03;;
60060;SDS011;45933;51.336;12.612;2023-05-10T04:37:52;6.73;;;4.20;;
60060;SDS011;45933;51.336;12.612;2023-05-10T04:40:17;4.73;;;3.67;;
60060;SDS011;45933;51.336;12.612;2023-05-10T04:42:43;4.50;;;3.70;;
60060;SDS011;45933;51.336;12.612;2023-05-10T04:45:09;7.17;;;3.40;;
60060;SDS011;45933;51.336;12.612;2023-05-10T04:47:35;4.60;;;3.50;;
60060;SDS011;45933;51.336;12.612;2023-05-10T04:50:01;5.60;;;3.57;;
60060;SDS011;45933;51.336;12.612;2023-05-10T04:52:27;4.67;;;3.37;;
60060;SDS011;45933;51.336;12.612;2023-05-10T04:54:52;5.67;;;3.50;;
60060;SDS011;45933;51.336;12.612;2023-05-10T04:57:17;5.87;;;3.53;;
60060;SDS011;45933;51.336;12.612;2023-05-10T04:59:43;6.33;;;3.30;;
60060;SDS011;45933;51.336;12.612;2023-05-10T05:02:08;5.57;;;3.57;;
60060;SDS011;45933;51.336;12.612;2023-05-10T05:04:33;7.77;;;3.63;;
60060;SDS011;45933;51.336;12.612;2023-05-10T05:06:59;6.03;;;3.77;;
60060;SDS011;45933;51.336;12.612;2023-05-10T05:09:24;4.03;;;3.03;;
60060;SDS011;45933;51.336;12.612;2023-05-10T05:11:49;5.43;;;3.93;;
60060;SDS011;45933;51.336;12.612;2023-05-10T05:14:14;6.37;;;4.07;;
60060;SDS011;45933;51.336;12.612;2023-05-10T05:16:40;7.37;;;3.53;;
60060;SDS011;45933;51.336;12.612;2023-05-10T05:19:05;8.40;;;3.77;;
60060;SDS011;45933;51.336;12.612;2023-05-10T05:21:30;6.57;;;3.77;;
60060;SDS011;45933;51.336;12.612;2023-05-10T05:23:57;7.20;;;3.63;;
60060;SDS011;45933;51.336;12.612;2023-05-10T05:26:22;6.33;;;3.40;;
60060;SDS011;45933;51.336;12.612;2023-05-10T05:28:47;5.83;;;3.73;;
60060;SDS011;45933;51.336;12.612;2023-05-10T05:31:13;4.17;;;3.27;;
60060;SDS011;45933;51.336;12.612;2023-05-10T05:33:39;3.83;;;2.85;;
60060;SDS011;45933;51.336;12.612;2023-05-10T05:36:04;6.37;;;3.63;;
60060;SDS011;45933;51.336;12.612;2023-05-10T05:38:30;5.30;;;3.33;;
60060;SDS011;45933;51.336;12.612;2023-05-10T05:40:56;5.15;;;3.40;;
60060;SDS011;45933;51.336;12.612;2023-05-10T05:43:21;4.30;;;3.50;;
60060;SDS011;45933;51.336;12.612;2023-05-10T05:45:47;6.32;;;3.95;;
60060;SDS011;45933;51.336;12.612;2023-05-10T05:48:12;7.18;;;3.58;;
60060;SDS011;45933;51.336;12.612;2023-05-10T05:50:38;5.47;;;3.30;;
60060;SDS011;45933;51.336;12.612;2023-05-10T05:53:03;10.45;;;3.40;;
60060;SDS011;45933;51.336;12.612;2023-05-10T05:55:28;6.88;;;3.70;;
60060;SDS011;45933;51.336;12.612;2023-05-10T05:57:54;7.50;;;3.22;;
60060;SDS011;45933;51.336;12.612;2023-05-10T06:00:19;8.70;;;3.20;;
60060;SDS011;45933;51.336;12.612;2023-05-10T06:02:48;4.35;;;3.42;;
60060;SDS011;45933;51.336;12.612;2023-05-10T06:05:13;7.45;;;3.25;;
60060;SDS011;45933;51.336;12.612;2023-05-10T06:07:39;11.65;;;3.35;;
60060;SDS011;45933;51.336;12.612;2023-05-10T06:10:07;4.45;;;2.95;;
60060;SDS011;45933;51.336;12.612;2023-05-10T06:12:32;5.72;;;3.35;;
60060;SDS011;45933;51.336;12.612;2023-05-10T06:14:58;6.60;;;2.85;;
60060;SDS011;45933;51.336;12.612;2023-05-10T06:17:23;5.78;;;3.20;;
60060;SDS011;45933;51.336;12.612;2023-05-10T06:19:49;6.05;;;3.00;;
60060;SDS011;45933;51.336;12.612;2023-05-10T06:22:16;7.60;;;3.42;;
60060;SDS011;45933;51.336;12.612;2023-05-10T06:24:42;7.60;;;3.08;;
60060;SDS011;45933;51.336;12.612;2023-05-10T06:27:08;3.70;;;3.13;;
60060;SDS011;45933;51.336;12.612;2023-05-10T06:29:33;6.00;;;3.22;;
60060;SDS011;45933;51.336;12.612;2023-05-10T06:31:58;5.07;;;3.03;;
60060;SDS011;45933;51.336;12.612;2023-05-10T06:34:24;2.92;;;2.63;;
60060;SDS011;45933;51.336;12.612;2023-05-10T06:36:49;4.28;;;3.10;;
60060;SDS011;45933;51.336;12.612;2023-05-10T06:39:14;4.85;;;3.05;;
60060;SDS011;45933;51.336;12.612;2023-05-10T06:41:40;6.63;;;3.10;;
60060;SDS011;45933;51.336;12.612;2023-05-10T06:44:06;5.15;;;3.00;;
60060;SDS011;45933;51.336;12.612;2023-05-10T06:46:31;4.47;;;3.08;;
60060;SDS011;45933;51.336;12.612;2023-05-10T06:48:56;3.95;;;3.35;;
60060;SDS011;45933;51.336;12.612;2023-05-10T06:51:21;3.97;;;3.08;;
60060;SDS011;45933;51.336;12.612;2023-05-10T06:53:47;4.68;;;2.65;;
60060;SDS011;45933;51.336;12.612;2023-05-10T06:56:12;3.28;;;2.80;;
60060;SDS011;45933;51.336;12.612;2023-05-10T06:58:37;6.35;;;3.03;;
60060;SDS011;45933;51.336;12.612;2023-05-10T07:01:03;5.13;;;3.45;;
60060;SDS011;45933;51.336;12.612;2023-05-10T07:03:29;4.30;;;2.75;;
60060;SDS011;45933;51.336;12.612;2023-05-10T07:05:59;6.30;;;2.88;;
60060;SDS011;45933;51.336;12.612;2023-05-10T07:08:26;3.17;;;2.60;;
60060;SDS011;45933;51.336;12.612;2023-05-10T07:10:51;3.08;;;2.40;;
60060;SDS011;45933;51.336;12.612;2023-05-10T07:13:17;4.57;;;2.78;;
60060;SDS011;45933;51.336;12.612;2023-05-10T07:15:42;3.83;;;2.70;;
60060;SDS011;45933;51.336;12.612;2023-05-10T07:18:07;4.35;;;3.15;;
60060;SDS011;45933;51.336;12.612;2023-05-10T07:20:33;5.82;;;3.08;;
60060;SDS011;45933;51.336;12.612;2023-05-10T07:22:58;6.95;;;3.25;;
60060;SDS011;45933;51.336;12.612;2023-05-10T07:25:23;5.15;;;3.60;;
60060;SDS011;45933;51.336;12.612;2023-05-10T07:27:49;6.57;;;3.00;;
60060;SDS011;45933;51.336;12.612;2023-05-10T07:30:14;9.00;;;3.10;;
60060;SDS011;45933;51.336;12.612;2023-05-10T07:32:39;5.15;;;3.05;;
60060;SDS011;45933;51.336;12.612;2023-05-10T07:35:06;4.80;;;2.80;;
60060;SDS011;45933;51.336;12.612;2023-05-10T07:37:32;3.72;;;3.03;;
60060;SDS011;45933;51.336;12.612;2023-05-10T07:39:57;4.45;;;3.17;;
60060;SDS011;45933;51.336;12.612;2023-05-10T07:42:23;4.05;;;3.10;;
60060;SDS011;45933;51.336;12.612;2023-05-10T07:44:48;6.07;;;3.00;;
60060;SDS011;45933;51.336;12.612;2023-05-10T07:47:13;7.93;;;4.93;;
60060;SDS011;45933;51.336;12.612;2023-05-10T07:49:39;5.93;;;3.50;;
60060;SDS011;45933;51.336;12.612;2023-05-10T07:52:04;4.25;;;3.13;;
60060;SDS011;45933;51.336;12.612;2023-05-10T07:54:29;4.47;;;3.00;;
60060;SDS011;45933;51.336;12.612;2023-05-10T07:56:55;7.03;;;3.55;;
60060;SDS011;45933;51.336;12.612;2023-05-10T07:59:20;4.53;;;3.20;;
60060;SDS011;45933;51.336;12.612;2023-05-10T08:01:45;4.15;;;3.13;;
60060;SDS011;45933;51.336;12.612;2023-05-10T08:04:11;5.60;;;3.10;;
60060;SDS011;45933;51.336;12.612;2023-05-10T08:06:36;5.03;;;3.22;;
60060;SDS011;45933;51.336;12.612;2023-05-10T08:09:02;4.70;;;3.30;;
60060;SDS011;45933;51.336;12.612;2023-05-10T08:11:27;5.15;;;3.30;;
60060;SDS011;45933;51.336;12.612;2023-05-10T08:13:53;3.60;;;3.30;;
60060;SDS011;45933;51.336;12.612;2023-05-10T08:16:18;6.28;;;3.63;;
60060;SDS011;45933;51.336;12.612;2023-05-10T08:18:44;7.00;;;3.65;;
60060;SDS011;45933;51.336;12.612;2023-05-10T08:21:11;6.40;;;4.05;;
60060;SDS011;45933;51.336;12.612;2023-05-10T08:23:37;3.63;;;3.25;;
60060;SDS011;45933;51.336;12.612;2023-05-10T08:26:02;3.92;;;3.42;;
60060;SDS011;45933;51.336;12.612;2023-05-10T08:28:28;4.35;;;3.30;;
60060;SDS011;45933;51.336;12.612;2023-05-10T08:30:53;4.50;;;3.67;;
60060;SDS011;45933;51.336;12.612;2023-05-10T08:33:18;4.15;;;3.22;;
60060;SDS011;45933;51.336;12.612;2023-05-10T08:35:44;4.95;;;3.33;;
60060;SDS011;45933;51.336;12.612;2023-05-10T08:38:09;3.83;;;3.30;;
60060;SDS011;45933;51.336;12.612;2023-05-10T08:40:35;7.05;;;3.33;;
60060;SDS011;45933;51.336;12.612;2023-05-10T08:43:04;3.92;;;3.53;;
60060;SDS011;45933;51.336;12.612;2023-05-10T08:45:32;4.13;;;3.38;;
60060;SDS011;45933;51.336;12.612;2023-05-10T08:48:01;4.65;;;2.83;;
60060;SDS011;45933;51.336;12.612;2023-05-10T08:50:27;8.48;;;3.78;;
60060;SDS011;45933;51.336;12.612;2023-05-10T08:52:53;6.82;;;3.50;;
60060;SDS011;45933;51.336;12.612;2023-05-10T08:55:23;4.70;;;3.42;;
60060;SDS011;45933;51.336;12.612;2023-05-10T08:57:49;4.55;;;3.80;;
60060;SDS011;45933;51.336;12.612;2023-05-10T09:00:14;5.80;;;4.10;;
60060;SDS011;45933;51.336;12.612;2023-05-10T09:02:40;4.32;;;3.38;;
60060;SDS011;45933;51.336;12.612;2023-05-10T09:05:07;4.03;;;3.40;;
60060;SDS011;45933;51.336;12.612;2023-05-10T09:07:33;4.85;;;3.75;;
60060;SDS011;45933;51.336;12.612;2023-05-10T09:09:59;4.97;;;3.60;;
60060;SDS011;45933;51.336;12.612;2023-05-10T09:12:25;5.47;;;3.42;;
60060;SDS011;45933;51.336;12.612;2023-05-10T09:14:50;6.03;;;3.40;;
60060;SDS011;45933;51.336;12.612;2023-05-10T09:17:17;6.80;;;3.88;;
60060;SDS011;45933;51.336;12.612;2023-05-10T09:19:42;5.78;;;3.90;;
60060;SDS011;45933;51.336;12.612;2023-05-10T09:22:09;4.35;;;3.45;;
60060;SDS011;45933;51.336;12.612;2023-05-10T09:24:35;4.50;;;3.70;;
60060;SDS011;45933;51.336;12.612;2023-05-10T09:27:01;5.43;;;3.80;;
60060;SDS011;45933;51.336;12.612;2023-05-10T09:29:38;9.70;;;3.60;;
60060;SDS011;45933;51.336;12.612;2023-05-10T09:32:04;4.10;;;3.67;;
60060;SDS011;45933;51.336;12.612;2023-05-10T09:34:30;5.32;;;3.95;;
60060;SDS011;45933;51.336;12.612;2023-05-10T09:36:57;6.13;;;3.40;;
60060;SDS011;45933;51.336;12.612;2023-05-10T09:39:36;3.90;;;3.20;;
60060;SDS011;45933;51.336;12.612;2023-05-10T09:42:03;5.30;;;3.60;;
60060;SDS011;45933;51.336;12.612;2023-05-10T09:44:31;4.97;;;3.83;;
60060;SDS011;45933;51.336;12.612;2023-05-10T09:46:57;4.80;;;3.75;;
60060;SDS011;45933;51.336;12.612;2023-05-10T09:49:23;5.32;;;3.45;;
60060;SDS011;45933;51.336;12.612;2023-05-10T09:52:02;4.65;;;3.63;;
60060;SDS011;45933;51.336;12.612;2023-05-10T09:54:28;5.57;;;3.72;;
60060;SDS011;45933;51.336;12.612;2023-05-10T09:56:54;9.75;;;4.15;;
60060;SDS011;45933;51.336;12.612;2023-05-10T09:59:19;7.53;;;3.97;;
60060;SDS011;45933;51.336;12.612;2023-05-10T10:01:50;4.82;;;3.63;;
60060;SDS011;45933;51.336;12.612;2023-05-10T10:04:16;5.68;;;3.50;;
60060;SDS011;45933;51.336;12.612;2023-05-10T10:06:42;5.53;;;3.40;;
60060;SDS011;45933;51.336;12.612;2023-05-10T10:09:07;4.00;;;3.60;;
60060;SDS011;45933;51.336;12.612;2023-05-10T10:11:34;5.70;;;3.72;;
60060;SDS011;45933;51.336;12.612;2023-05-10T10:14:01;6.28;;;3.90;;
60060;SDS011;45933;51.336;12.612;2023-05-10T10:16:27;4.28;;;3.80;;
60060;SDS011;45933;51.336;12.612;2023-05-10T10:18:54;5.38;;;4.28;;
60060;SDS011;45933;51.336;12.612;2023-05-10T10:21:20;5.80;;;4.38;;
60060;SDS011;45933;51.336;12.612;2023-05-10T10:23:47;8.10;;;5.18;;
60060;SDS011;45933;51.336;12.612;2023-05-10T10:26:12;6.20;;;4.85;;
60060;SDS011;45933;51.336;12.612;2023-05-10T10:28:40;4.75;;;4.25;;
60060;SDS011;45933;51.336;12.612;2023-05-10T10:31:23;5.28;;;4.20;;
60060;SDS011;45933;51.336;12.612;2023-05-10T10:34:06;5.47;;;4.30;;
60060;SDS011;45933;51.336;12.612;2023-05-10T10:36:39;7.47;;;4.30;;
60060;SDS011;45933;51.336;12.612;2023-05-10T10:39:08;4.90;;;4.40;;
60060;SDS011;45933;51.336;12.612;2023-05-10T10:41:36;5.22;;;4.72;;
60060;SDS011;45933;51.336;12.612;2023-05-10T10:52:27;6.38;;;4.80;;
60060;SDS011;45933;51.336;12.612;2023-05-10T10:55:01;6.43;;;4.75;;
60060;SDS011;45933;51.336;12.612;2023-05-10T10:57:31;4.95;;;4.45;;
60060;SDS011;45933;51.336;12.612;2023-05-10T11:03:06;6.75;;;5.05;;
60060;SDS011;45933;51.336;12.612;2023-05-10T11:05:46;6.78;;;5.00;;
60060;SDS011;45933;51.336;12.612;2023-05-10T11:08:14;6.88;;;5.07;;
60060;SDS011;45933;51.336;12.612;2023-05-10T11:10:51;6.35;;;5.50;;
60060;SDS011;45933;51.336;12.612;2023-05-10T11:13:41;6.47;;;5.78;;
60060;SDS011;45933;51.336;12.612;2023-05-10T11:16:20;6.18;;;5.30;;
60060;SDS011;45933;51.336;12.612;2023-05-10T11:18:53;7.20;;;5.13;;
60060;SDS011;45933;51.336;12.612;2023-05-10T11:21:30;6.68;;;5.95;;
60060;SDS011;45933;51.336;12.612;2023-05-10T11:23:56;6.07;;;5.47;;
60060;SDS011;45933;51.336;12.612;2023-05-10T11:26:30;6.35;;;5.32;;
60060;SDS011;45933;51.336;12.612;2023-05-10T11:28:57;8.07;;;6.15;;
60060;SDS011;45933;51.336;12.612;2023-05-10T11:31:24;7.65;;;6.80;;
60060;SDS011;45933;51.336;12.612;2023-05-10T11:33:54;8.75;;;7.22;;
60060;SDS011;45933;51.336;12.612;2023-05-10T11:36:23;5.95;;;5.30;;
60060;SDS011;45933;51.336;12.612;2023-05-10T11:38:50;8.50;;;5.68;;
60060;SDS011;45933;51.336;12.612;2023-05-10T11:41:17;11.18;;;7.97;;
60060;SDS011;45933;51.336;12.612;2023-05-10T11:43:44;8.18;;;7.25;;
60060;SDS011;45933;51.336;12.612;2023-05-10T11:46:12;8.63;;;7.80;;
60060;SDS011;45933;51.336;12.612;2023-05-10T11:48:41;7.03;;;6.15;;
60060;SDS011;45933;51.336;12.612;2023-05-10T11:51:07;6.40;;;5.80;;
60060;SDS011;45933;51.336;12.612;2023-05-10T11:53:34;6.45;;;5.85;;
60060;SDS011;45933;51.336;12.612;2023-05-10T11:56:03;6.28;;;5.47;;
60060;SDS011;45933;51.336;12.612;2023-05-10T11:58:30;9.85;;;6.10;;
60060;SDS011;45933;51.336;12.612;2023-05-10T12:00:57;6.95;;;5.90;;
60060;SDS011;45933;51.336;12.612;2023-05-10T12:03:23;8.15;;;6.20;;
60060;SDS011;45933;51.336;12.612;2023-05-10T12:05:48;7.28;;;5.88;;
60060;SDS011;45933;51.336;12.612;2023-05-10T12:08:14;9.52;;;6.43;;
60060;SDS011;45933;51.336;12.612;2023-05-10T12:10:41;6.55;;;5.82;;
60060;SDS011;45933;51.336;12.612;2023-05-10T12:13:13;5.95;;;5.40;;
60060;SDS011;45933;51.336;12.612;2023-05-10T12:15:39;6.85;;;5.78;;
60060;SDS011;45933;51.336;12.612;2023-05-10T12:18:05;6.70;;;5.88;;
60060;SDS011;45933;51.336;12.612;2023-05-10T12:20:30;6.72;;;5.78;;
60060;SDS011;45933;51.336;12.612;2023-05-10T12:22:56;7.70;;;5.70;;
60060;SDS011;45933;51.336;12.612;2023-05-10T12:25:23;7.57;;;5.68;;
60060;SDS011;45933;51.336;12.612;2023-05-10T12:27:56;11.25;;;7.05;;
60060;SDS011;45933;51.336;12.612;2023-05-10T12:30:22;7.55;;;6.30;;
60060;SDS011;45933;51.336;12.612;2023-05-10T12:32:52;7.47;;;6.68;;
60060;SDS011;45933;51.336;12.612;2023-05-10T12:35:18;7.20;;;6.50;;
60060;SDS011;45933;51.336;12.612;2023-05-10T12:37:48;6.80;;;5.80;;
60060;SDS011;45933;51.336;12.612;2023-05-10T12:40:15;6.45;;;5.85;;
60060;SDS011;45933;51.336;12.612;2023-05-10T12:42:40;7.20;;;5.97;;
60060;SDS011;45933;51.336;12.612;2023-05-10T12:45:06;6.55;;;5.95;;
60060;SDS011;45933;51.336;12.612;2023-05-10T12:47:33;6.85;;;5.53;;
60060;SDS011;45933;51.336;12.612;2023-05-10T12:50:02;9.32;;;7.43;;
60060;SDS011;45933;51.336;12.612;2023-05-10T12:52:28;6.50;;;5.80;;
60060;SDS011;45933;51.336;12.612;2023-05-10T12:54:53;5.30;;;4.80;;
60060;SDS011;45933;51.336;12.612;2023-05-10T12:57:22;5.63;;;5.00;;
60060;SDS011;45933;51.336;12.612;2023-05-10T12:59:47;5.88;;;5.15;;
60060;SDS011;45933;51.336;12.612;2023-05-10T13:02:12;5.97;;;5.07;;
60060;SDS011;45933;51.336;12.612;2023-05-10T13:04:39;5.68;;;5.07;;
60060;SDS011;45933;51.336;12.612;2023-05-10T13:07:05;5.28;;;4.78;;
60060;SDS011;45933;51.336;12.612;2023-05-10T13:09:34;5.00;;;4.47;;
60060;SDS011;45933;51.336;12.612;2023-05-10T13:11:59;4.80;;;4.30;;
60060;SDS011;45933;51.336;12.612;2023-05-10T13:14:25;5.50;;;4.55;;
60060;SDS011;45933;51.336;12.612;2023-05-10T13:16:50;6.57;;;5.20;;
60060;SDS011;45933;51.336;12.612;2023-05-10T13:19:15;5.50;;;4.15;;
60060;SDS011;45933;51.336;12.612;2023-05-10T13:21:41;5.25;;;4.10;;
60060;SDS011;45933;51.336;12.612;2023-05-10T13:24:07;4.90;;;4.50;;
60060;SDS011;45933;51.336;12.612;2023-05-10T13:26:32;8.93;;;4.93;;
60060;SDS011;45933;51.336;12.612;2023-05-10T13:28:58;6.55;;;5.30;;
60060;SDS011;45933;51.336;12.612;2023-05-10T13:31:23;4.65;;;4.18;;
60060;SDS011;45933;51.336;12.612;2023-05-10T13:33:48;4.30;;;3.90;;
60060;SDS011;45933;51.336;12.612;2023-05-10T13:36:14;5.43;;;4.20;;
60060;SDS011;45933;51.336;12.612;2023-05-10T13:38:39;3.88;;;3.47;;
60060;SDS011;45933;51.336;12.612;2023-05-10T13:41:05;4.45;;;3.70;;
60060;SDS011;45933;51.336;12.612;2023-05-10T13:43:30;3.78;;;3.35;;
60060;SDS011;45933;51.336;12.612;2023-05-10T13:45:55;5.20;;;3.40;;
60060;SDS011;45933;51.336;12.612;2023-05-10T13:48:21;3.88;;;3.47;;
60060;SDS011;45933;51.336;12.612;2023-05-10T13:50:46;4.25;;;3.42;;
60060;SDS011;45933;51.336;12.612;2023-05-10T13:53:11;3.80;;;3.42;;
60060;SDS011;45933;51.336;12.612;2023-05-10T13:55:37;3.42;;;3.13;;
60060;SDS011;45933;51.336;12.612;2023-05-10T13:58:03;3.47;;;2.85;;
60060;SDS011;45933;51.336;12.612;2023-05-10T14:00:28;3.08;;;2.63;;
60060;SDS011;45933;51.336;12.612;2023-05-10T14:02:53;3.10;;;2.42;;
60060;SDS011;45933;51.336;12.612;2023-05-10T14:05:19;2.70;;;2.38;;
60060;SDS011;45933;51.336;12.612;2023-05-10T14:07:45;2.47;;;2.20;;
60060;SDS011;45933;51.336;12.612;2023-05-10T14:10:10;3.13;;;2.80;;
60060;SDS011;45933;51.336;12.612;2023-05-10T14:12:35;3.17;;;2.72;;
60060;SDS011;45933;51.336;12.612;2023-05-10T14:15:01;5.70;;;2.90;;
60060;SDS011;45933;51.336;12.612;2023-05-10T14:17:27;3.10;;;2.35;;
60060;SDS011;45933;51.336;12.612;2023-05-10T14:19:52;2.45;;;2.25;;
60060;SDS011;45933;51.336;12.612;2023-05-10T14:22:18;2.83;;;2.55;;
60060;SDS011;45933;51.336;12.612;2023-05-10T14:24:43;2.25;;;2.00;;
60060;SDS011;45933;51.336;12.612;2023-05-10T14:27:11;3.15;;;2.85;;
60060;SDS011;45933;51.336;12.612;2023-05-10T14:29:37;3.10;;;2.80;;
60060;SDS011;45933;51.336;12.612;2023-05-10T14:32:02;2.60;;;2.40;;
60060;SDS011;45933;51.336;12.612;2023-05-10T14:34:27;2.30;;;2.10;;
60060;SDS011;45933;51.336;12.612;2023-05-10T14:36:53;2.97;;;2.28;;
60060;SDS011;45933;51.336;12.612;2023-05-10T14:39:18;2.20;;;2.00;;
60060;SDS011;45933;51.336;12.612;2023-05-10T14:41:43;3.80;;;1.92;;
60060;SDS011;45933;51.336;12.612;2023-05-10T14:44:10;2.28;;;2.03;;
60060;SDS011;45933;51.336;12.612;2023-05-10T14:46:36;4.95;;;2.63;;
60060;SDS011;45933;51.336;12.612;2023-05-10T14:49:02;3.30;;;1.83;;
60060;SDS011;45933;51.336;12.612;2023-05-10T14:51:27;5.60;;;2.10;;
60060;SDS011;45933;51.336;12.612;2023-05-10T14:53:52;4.45;;;1.90;;
60060;SDS011;45933;51.336;12.612;2023-05-10T14:56:18;2.90;;;2.05;;
60060;SDS011;45933;51.336;12.612;2023-05-10T14:58:43;2.17;;;1.98;;